createdAt,value
2022-08-23T00:01:57.070Z,18.60
2022-08-23T00:04:34.665Z,18.60
2022-08-23T00:07:03.653Z,18.60
2022-08-23T00:09:31.725Z,18.60
2022-08-23T00:12:06.398Z,18.60
2022-08-23T00:14:35.861Z,18.50
2022-08-23T00:17:04.667Z,18.50
2022-08-23T00:19:34.144Z,18.40
2022-08-23T00:22:02.263Z,18.40
2022-08-23T00:24:30.523Z,18.40
2022-08-23T00:27:01.103Z,18.40
2022-08-23T00:29:31.210Z,18.30
2022-08-23T00:31:59.525Z,18.30
2022-08-23T00:34:28.246Z,18.20
2022-08-23T00:36:57.926Z,18.20
2022-08-23T00:39:26.149Z,18.20
2022-08-23T00:41:54.346Z,18.20
2022-08-23T00:44:43.248Z,18.20
2022-08-23T00:47:28.778Z,18.20
2022-08-23T00:49:59.255Z,18.20
2022-08-23T00:52:30.864Z,18.20
2022-08-23T00:54:59.203Z,18.20
2022-08-23T00:57:27.329Z,18.20
2022-08-23T00:59:55.805Z,18.20
2022-08-23T01:02:24.093Z,18.20
2022-08-23T01:04:55.194Z,18.20
2022-08-23T01:07:30.103Z,18.20
2022-08-23T01:10:02.536Z,18.30
2022-08-23T01:12:34.146Z,18.30
2022-08-23T01:15:03.218Z,18.30
2022-08-23T01:17:34.137Z,18.30
2022-08-23T01:20:04.744Z,18.30
2022-08-23T01:22:36.191Z,18.30
2022-08-23T01:25:08.991Z,18.30
2022-08-23T01:27:43.209Z,18.40
2022-08-23T01:30:16.985Z,18.40
2022-08-23T01:32:51.652Z,18.30
2022-08-23T01:37:53.476Z,18.30
2022-08-23T01:40:23.108Z,18.20
2022-08-23T01:42:51.280Z,18.20
2022-08-23T01:45:19.526Z,18.20
2022-08-23T01:47:47.678Z,18.20
2022-08-23T01:50:16.462Z,18.20
2022-08-23T01:52:46.587Z,18.20
2022-08-23T01:55:16.956Z,18.20
2022-08-23T01:57:48.293Z,18.20
2022-08-23T02:00:19.443Z,18.20
2022-08-23T02:02:48.267Z,18.20
2022-08-23T02:05:18.809Z,18.20
2022-08-23T02:07:47.890Z,18.20
2022-08-23T02:10:18.066Z,18.20
2022-08-23T02:12:47.819Z,18.30
2022-08-23T02:15:17.900Z,18.20
2022-08-23T02:17:48.558Z,18.20
2022-08-23T02:20:17.181Z,18.20
2022-08-23T02:22:45.301Z,18.20
2022-08-23T02:25:13.352Z,18.20
2022-08-23T02:27:43.027Z,18.20
2022-08-23T02:30:15.311Z,18.20
2022-08-23T02:32:44.141Z,18.20
2022-08-23T02:37:59.241Z,18.20
2022-08-23T02:40:27.525Z,18.20
2022-08-23T02:42:55.679Z,18.20
2022-08-23T02:45:25.263Z,18.20
2022-08-23T02:47:53.562Z,18.20
2022-08-23T02:50:26.316Z,18.20
2022-08-23T02:52:55.018Z,18.20
2022-08-23T02:55:23.810Z,18.20
2022-08-23T02:57:51.932Z,18.20
2022-08-23T03:00:20.160Z,18.20
2022-08-23T03:02:51.594Z,18.20
2022-08-23T03:05:19.718Z,18.20
2022-08-23T03:07:47.789Z,18.30
2022-08-23T03:10:17.490Z,18.20
2022-08-23T03:12:54.421Z,18.20
2022-08-23T03:15:22.523Z,18.20
2022-08-23T03:17:51.993Z,18.10
2022-08-23T03:20:20.258Z,18.10
2022-08-23T03:22:54.436Z,18.10
2022-08-23T03:25:25.358Z,18.10
2022-08-23T03:28:16.838Z,18.10
2022-08-23T03:30:46.139Z,18.10
2022-08-23T03:33:15.937Z,18.10
2022-08-23T03:35:46.803Z,18.10
2022-08-23T03:38:14.978Z,18.10
2022-08-23T03:40:44.148Z,18.10
2022-08-23T03:43:12.212Z,18.10
2022-08-23T03:45:40.348Z,18.10
2022-08-23T03:48:09.803Z,18.10
2022-08-23T03:50:40.055Z,18.00
2022-08-23T03:53:08.261Z,18.00
2022-08-23T03:55:42.266Z,18.00
2022-08-23T03:58:12.451Z,18.00
2022-08-23T04:00:40.585Z,18.00
2022-08-23T04:03:08.737Z,18.00
2022-08-23T04:05:53.596Z,18.00
2022-08-23T04:08:33.250Z,18.00
2022-08-23T04:11:02.543Z,18.00
2022-08-23T04:13:30.667Z,18.10
2022-08-23T04:16:03.250Z,18.10
2022-08-23T04:18:31.729Z,18.10
2022-08-23T04:21:01.990Z,18.10
2022-08-23T04:23:30.443Z,18.10
2022-08-23T04:25:58.627Z,18.10
2022-08-23T04:28:27.052Z,18.10
2022-08-23T04:30:55.682Z,18.10
2022-08-23T04:33:25.181Z,18.10
2022-08-23T04:35:53.347Z,18.10
2022-08-23T04:38:25.394Z,18.20
2022-08-23T04:41:17.828Z,18.20
2022-08-23T04:43:47.482Z,18.20
2022-08-23T04:46:16.524Z,18.20
2022-08-23T04:48:47.395Z,18.20
2022-08-23T04:51:16.042Z,18.20
2022-08-23T04:53:45.726Z,18.20
2022-08-23T04:56:37.082Z,18.20
2022-08-23T04:59:05.430Z,18.20
2022-08-23T05:01:34.934Z,18.30
2022-08-23T05:04:03.412Z,18.30
2022-08-23T05:06:32.318Z,18.30
2022-08-23T05:09:02.214Z,18.30
2022-08-23T05:11:31.089Z,18.40
2022-08-23T05:13:59.448Z,18.40
2022-08-23T05:16:27.618Z,18.40
2022-08-23T05:19:01.513Z,18.50
2022-08-23T05:21:32.441Z,18.50
2022-08-23T05:24:03.817Z,18.50
2022-08-23T05:26:32.562Z,18.50
2022-08-23T05:29:00.757Z,18.50
2022-08-23T05:31:37.482Z,18.60
2022-08-23T05:34:05.655Z,18.60
2022-08-23T05:36:47.419Z,18.70
2022-08-23T05:39:36.110Z,18.60
2022-08-23T05:42:07.924Z,18.50
2022-08-23T05:44:37.313Z,18.50
2022-08-23T05:47:11.382Z,18.50
2022-08-23T05:50:06.094Z,18.50
2022-08-23T05:52:37.238Z,18.60
2022-08-23T05:55:07.402Z,18.70
2022-08-23T05:57:41.393Z,18.70
2022-08-23T06:00:12.430Z,18.70
2022-08-23T06:02:46.836Z,18.70
2022-08-23T06:05:15.454Z,18.80
2022-08-23T06:07:45.119Z,18.80
2022-08-23T06:10:16.277Z,18.90
2022-08-23T06:12:50.125Z,19.10
2022-08-23T06:15:18.366Z,19.20
2022-08-23T06:17:47.157Z,19.20
2022-08-23T06:20:16.145Z,19.30
2022-08-23T06:23:19.662Z,19.40
2022-08-23T06:25:49.070Z,19.40
2022-08-23T06:28:18.816Z,19.50
2022-08-23T06:30:55.922Z,19.60
2022-08-23T06:33:46.918Z,19.70
2022-08-23T06:36:36.586Z,19.70
2022-08-23T06:39:16.050Z,19.80
2022-08-23T06:42:37.664Z,19.80
2022-08-23T06:45:06.526Z,19.90
2022-08-23T06:47:40.648Z,19.90
2022-08-23T06:50:09.779Z,20.00
2022-08-23T06:53:07.046Z,20.00
2022-08-23T06:56:07.367Z,20.10
2022-08-23T06:58:45.531Z,20.10
2022-08-23T07:01:45.792Z,20.00
2022-08-23T07:04:34.841Z,20.10
2022-08-23T07:07:23.510Z,20.20
2022-08-23T07:09:52.973Z,20.30
2022-08-23T07:12:22.143Z,20.30
2022-08-23T07:14:51.652Z,20.30
2022-08-23T07:17:20.148Z,20.40
2022-08-23T07:19:48.390Z,20.50
2022-08-23T07:22:16.556Z,20.60
2022-08-23T07:24:44.639Z,20.60
2022-08-23T07:27:12.854Z,20.80
2022-08-23T07:29:48.198Z,20.80
2022-08-23T07:32:18.732Z,20.90
2022-08-23T07:34:47.810Z,21.10
2022-08-23T07:37:17.501Z,21.10
2022-08-23T07:39:47.097Z,21.20
2022-08-23T07:42:22.753Z,21.30
2022-08-23T07:44:53.701Z,21.40
2022-08-23T07:47:25.072Z,21.40
2022-08-23T07:49:56.759Z,21.50
2022-08-23T07:52:24.910Z,21.60
2022-08-23T07:54:53.232Z,21.50
2022-08-23T07:57:36.292Z,21.60
2022-08-23T08:00:26.904Z,21.80
2022-08-23T08:03:06.502Z,21.90
2022-08-23T08:05:57.736Z,21.80
2022-08-23T08:08:25.898Z,21.90
2022-08-23T08:10:55.321Z,22.00
2022-08-23T08:13:23.502Z,22.00
2022-08-23T08:15:53.677Z,22.10
2022-08-23T08:18:24.248Z,22.20
2022-08-23T08:21:21.353Z,22.30
2022-08-23T08:24:00.291Z,22.80
2022-08-23T08:26:39.479Z,23.60
2022-08-23T08:29:07.821Z,23.60
2022-08-23T08:31:38.248Z,24.00
2022-08-23T08:34:08.143Z,24.40
2022-08-23T08:36:37.795Z,25.10
2022-08-23T08:39:10.438Z,25.60
2022-08-23T08:42:04.014Z,26.20
2022-08-23T08:44:36.975Z,26.60
2022-08-23T08:47:08.746Z,26.60
2022-08-23T08:49:40.059Z,26.90
2022-08-23T08:52:15.950Z,26.50
2022-08-23T08:54:48.029Z,25.80
2022-08-23T08:57:19.533Z,26.50
2022-08-23T08:59:56.651Z,26.60
2022-08-23T09:02:32.689Z,26.10
2022-08-23T09:05:08.740Z,26.30
2022-08-23T09:07:43.192Z,26.20
2022-08-23T09:10:41.898Z,25.70
2022-08-23T09:13:47.504Z,26.10
2022-08-23T09:16:23.132Z,26.00
2022-08-23T09:18:51.257Z,26.60
2022-08-23T09:21:20.687Z,27.40
2022-08-23T09:24:00.644Z,27.00
2022-08-23T09:26:40.815Z,26.50
2022-08-23T09:29:17.852Z,26.10
2022-08-23T09:31:48.441Z,25.60
2022-08-23T09:34:18.406Z,26.30
2022-08-23T09:37:09.897Z,27.10
2022-08-23T09:39:39.659Z,27.30
2022-08-23T09:42:27.240Z,27.50
2022-08-23T09:44:56.449Z,27.40
2022-08-23T09:47:34.243Z,28.00
2022-08-23T09:50:11.396Z,28.30
2022-08-23T09:52:41.267Z,28.30
2022-08-23T09:55:11.269Z,27.90
2022-08-23T09:57:48.166Z,28.00
2022-08-23T10:00:25.079Z,28.30
2022-08-23T10:02:57.623Z,29.10
2022-08-23T10:05:31.399Z,29.20
2022-08-23T10:08:01.793Z,29.20
2022-08-23T10:10:33.709Z,28.80
2022-08-23T10:13:05.229Z,28.60
2022-08-23T10:15:49.407Z,28.70
2022-08-23T10:18:24.949Z,28.60
2022-08-23T10:20:57.003Z,28.70
2022-08-23T10:23:34.398Z,29.40
2022-08-23T10:26:02.558Z,29.80
2022-08-23T10:28:54.903Z,29.40
2022-08-23T10:31:27.980Z,29.40
2022-08-23T10:34:02.278Z,29.80
2022-08-23T10:36:35.016Z,29.70
2022-08-23T10:39:07.497Z,29.70
2022-08-23T10:41:44.563Z,29.60
2022-08-23T10:44:24.458Z,30.20
2022-08-23T10:47:03.560Z,30.50
2022-08-23T10:49:32.126Z,30.30
2022-08-23T10:52:01.631Z,30.00
2022-08-23T10:54:46.007Z,30.30
2022-08-23T10:57:20.508Z,30.30
2022-08-23T10:59:48.870Z,30.30
2022-08-23T11:02:22.013Z,30.20
2022-08-23T11:05:03.888Z,30.40
2022-08-23T11:07:35.314Z,29.60
2022-08-23T11:10:16.640Z,29.40
2022-08-23T11:12:56.017Z,29.30
2022-08-23T11:15:29.164Z,29.60
2022-08-23T11:18:00.082Z,29.60
2022-08-23T11:21:02.223Z,29.40
2022-08-23T11:23:49.368Z,29.60
2022-08-23T11:26:51.570Z,29.50
2022-08-23T11:29:32.026Z,29.50
2022-08-23T11:32:25.923Z,29.40
2022-08-23T11:35:05.785Z,30.20
2022-08-23T11:37:51.058Z,29.90
2022-08-23T11:41:05.957Z,30.00
2022-08-23T11:43:37.761Z,30.40
2022-08-23T11:46:34.704Z,30.10
2022-08-23T11:50:05.851Z,30.50
2022-08-23T11:52:55.411Z,30.20
2022-08-23T11:55:29.152Z,30.40
2022-08-23T11:58:17.005Z,30.60
2022-08-23T12:00:57.545Z,30.70
2022-08-23T12:03:32.561Z,30.80
2022-08-23T12:06:10.474Z,30.70
2022-08-23T12:08:50.391Z,29.60
2022-08-23T12:11:18.822Z,29.00
2022-08-23T12:13:52.511Z,29.40
2022-08-23T12:16:49.642Z,29.50
2022-08-23T12:19:30.548Z,29.70
2022-08-23T12:21:58.589Z,29.70
2022-08-23T12:24:29.937Z,29.00
2022-08-23T12:27:10.734Z,28.70
2022-08-23T12:29:46.300Z,28.70
2022-08-23T12:32:18.483Z,29.00
2022-08-23T12:34:53.702Z,29.20
2022-08-23T12:37:27.488Z,29.10
2022-08-23T12:39:57.236Z,29.60
2022-08-23T12:42:27.498Z,29.70
2022-08-23T12:45:05.278Z,29.80
2022-08-23T12:47:33.632Z,29.30
2022-08-23T12:50:06.178Z,29.00
2022-08-23T12:52:34.974Z,28.60
2022-08-23T12:55:03.244Z,29.20
2022-08-23T12:57:36.674Z,29.40
2022-08-23T13:00:18.471Z,29.30
2022-08-23T13:02:50.562Z,29.40
2022-08-23T13:05:23.894Z,29.20
2022-08-23T13:07:52.327Z,29.30
2022-08-23T13:10:20.435Z,29.10
2022-08-23T13:12:48.472Z,29.20
2022-08-23T13:15:47.617Z,29.20
2022-08-23T13:18:26.350Z,29.40
2022-08-23T13:21:27.067Z,28.60
2022-08-23T13:23:56.240Z,29.00
2022-08-23T13:26:26.874Z,29.20
2022-08-23T13:29:09.434Z,29.40
2022-08-23T13:32:06.814Z,29.00
2022-08-23T13:34:40.591Z,29.40
2022-08-23T13:37:21.496Z,29.70
2022-08-23T13:39:52.819Z,29.70
2022-08-23T13:42:28.868Z,29.30
2022-08-23T13:44:56.919Z,28.80
2022-08-23T13:47:26.019Z,28.80
2022-08-23T13:49:54.080Z,28.80
2022-08-23T13:52:56.750Z,28.50
2022-08-23T13:55:11.963Z,28.30
2022-08-23T13:57:41.171Z,28.10
2022-08-23T14:00:10.764Z,28.40
2022-08-23T14:02:39.216Z,28.40
2022-08-23T14:05:07.984Z,28.50
2022-08-23T14:07:37.436Z,28.50
2022-08-23T14:10:06.095Z,28.30
2022-08-23T14:12:34.583Z,28.30
2022-08-23T14:15:02.857Z,28.40
2022-08-23T14:17:31.075Z,28.60
2022-08-23T14:22:48.595Z,28.70
2022-08-23T14:25:16.690Z,28.80
2022-08-23T14:27:45.972Z,28.50
2022-08-23T14:30:29.408Z,28.40
2022-08-23T14:32:57.945Z,28.00
2022-08-23T14:35:26.029Z,28.00
2022-08-23T14:38:03.981Z,27.90
2022-08-23T14:40:32.640Z,28.20
2022-08-23T14:43:00.767Z,28.40
2022-08-23T14:45:29.033Z,28.00
2022-08-23T14:47:57.102Z,27.50
2022-08-23T14:50:25.231Z,27.70
2022-08-23T14:52:58.105Z,27.80
2022-08-23T14:55:26.174Z,28.00
2022-08-23T14:57:55.091Z,28.10
2022-08-23T15:00:23.703Z,27.90
2022-08-23T15:02:51.739Z,28.00
2022-08-23T15:05:19.863Z,28.00
2022-08-23T15:07:47.890Z,28.20
2022-08-23T15:13:28.381Z,28.10
2022-08-23T15:15:53.462Z,28.40
2022-08-23T15:18:21.822Z,28.70
2022-08-23T15:20:52.220Z,28.70
2022-08-23T15:23:20.481Z,28.50
2022-08-23T15:25:50.139Z,28.50
2022-08-23T15:28:19.160Z,28.90
2022-08-23T15:30:47.347Z,29.30
2022-08-23T15:33:15.483Z,29.30
2022-08-23T15:35:46.358Z,29.20
2022-08-23T15:38:15.968Z,29.20
2022-08-23T15:40:44.291Z,29.00
2022-08-23T15:43:13.706Z,28.90
2022-08-23T15:45:41.941Z,29.10
2022-08-23T15:48:13.696Z,29.20
2022-08-23T15:50:42.887Z,28.80
2022-08-23T15:53:10.928Z,28.70
2022-08-23T15:55:39.220Z,28.20
2022-08-23T15:58:07.272Z,27.70
2022-08-23T16:00:36.728Z,27.20
2022-08-23T16:03:19.175Z,27.40
2022-08-23T16:05:50.495Z,27.00
2022-08-23T16:08:20.203Z,27.00
2022-08-23T16:10:48.275Z,27.00
2022-08-23T16:13:16.477Z,26.90
2022-08-23T16:15:45.999Z,27.00
2022-08-23T16:18:14.068Z,26.90
2022-08-23T16:20:42.300Z,26.80
2022-08-23T16:23:10.337Z,26.70
2022-08-23T16:25:38.516Z,26.50
2022-08-23T16:28:07.512Z,26.50
2022-08-23T16:30:35.640Z,26.40
2022-08-23T16:33:05.160Z,26.40
2022-08-23T16:35:33.278Z,26.20
2022-08-23T16:38:01.362Z,26.00
2022-08-23T16:40:29.502Z,25.90
2022-08-23T16:42:57.680Z,25.90
2022-08-23T16:45:26.242Z,25.80
2022-08-23T16:47:54.600Z,25.70
2022-08-23T16:50:24.008Z,25.40
2022-08-23T16:52:52.054Z,25.40
2022-08-23T16:55:20.202Z,25.30
2022-08-23T16:57:48.221Z,25.30
2022-08-23T17:00:16.719Z,25.10
2022-08-23T17:02:44.864Z,25.00
2022-08-23T17:05:14.086Z,25.00
2022-08-23T17:07:43.496Z,24.90
2022-08-23T17:10:12.432Z,24.90
2022-08-23T17:12:42.441Z,24.90
2022-08-23T17:15:21.777Z,24.90
2022-08-23T17:17:49.864Z,24.80
2022-08-23T17:20:18.203Z,24.70
2022-08-23T17:22:47.742Z,24.70
2022-08-23T17:25:16.347Z,24.70
2022-08-23T17:27:46.425Z,24.70
2022-08-23T17:30:16.383Z,24.60
2022-08-23T17:32:44.466Z,24.50
2022-08-23T17:35:15.128Z,24.50
2022-08-23T17:37:43.424Z,24.30
2022-08-23T17:40:15.047Z,24.30
2022-08-23T17:42:43.215Z,24.30
2022-08-23T17:45:12.458Z,24.20
2022-08-23T17:47:40.758Z,24.20
2022-08-23T17:50:09.663Z,24.10
2022-08-23T17:52:37.720Z,24.00
2022-08-23T17:55:06.715Z,23.90
2022-08-23T17:57:37.054Z,23.80
2022-08-23T18:00:06.419Z,23.80
2022-08-23T18:02:34.417Z,23.70
2022-08-23T18:05:02.551Z,23.60
2022-08-23T18:07:30.658Z,23.50
2022-08-23T18:09:58.739Z,23.30
2022-08-23T18:12:26.788Z,23.30
2022-08-23T18:14:57.091Z,23.20
2022-08-23T18:17:25.130Z,23.20
2022-08-23T18:19:53.319Z,23.10
2022-08-23T18:22:21.352Z,23.10
2022-08-23T18:24:50.521Z,23.00
2022-08-23T18:27:35.904Z,22.90
2022-08-23T18:30:06.290Z,22.80
2022-08-23T18:32:34.331Z,22.70
2022-08-23T18:35:02.387Z,22.60
2022-08-23T18:37:30.511Z,22.50
2022-08-23T18:39:58.608Z,22.30
2022-08-23T18:42:26.963Z,22.30
2022-08-23T18:44:55.030Z,22.30
2022-08-23T18:47:24.555Z,22.20
2022-08-23T18:49:52.612Z,22.20
2022-08-23T18:52:20.659Z,22.10
2022-08-23T18:54:48.707Z,22.00
2022-08-23T18:57:19.235Z,21.90
2022-08-23T18:59:47.311Z,21.80
2022-08-23T19:02:16.086Z,21.70
2022-08-23T19:04:46.191Z,21.60
2022-08-23T19:07:15.010Z,21.60
2022-08-23T19:09:43.084Z,21.50
2022-08-23T19:12:11.303Z,21.50
2022-08-23T19:14:39.386Z,21.40
2022-08-23T19:17:08.157Z,21.40
2022-08-23T19:19:36.246Z,21.30
2022-08-23T19:22:05.775Z,21.20
2022-08-23T19:24:33.970Z,21.10
2022-08-23T19:27:01.998Z,21.10
2022-08-23T19:29:31.299Z,21.10
2022-08-23T19:31:59.392Z,21.00
2022-08-23T19:34:27.530Z,21.00
2022-08-23T19:37:01.179Z,21.00
2022-08-23T19:39:31.028Z,20.90
2022-08-23T19:41:59.138Z,20.90
2022-08-23T19:44:28.217Z,20.90
2022-08-23T19:46:56.354Z,20.90
2022-08-23T19:49:24.446Z,20.80
2022-08-23T19:51:52.741Z,20.70
2022-08-23T19:54:20.808Z,20.70
2022-08-23T19:56:51.748Z,20.60
2022-08-23T19:59:21.266Z,20.60
2022-08-23T20:01:49.757Z,20.60
2022-08-23T20:04:18.050Z,20.50
2022-08-23T20:06:46.094Z,20.50
2022-08-23T20:09:14.147Z,20.40
2022-08-23T20:11:42.611Z,20.30
2022-08-23T20:14:12.166Z,20.30
2022-08-23T20:16:41.479Z,20.30
2022-08-23T20:19:10.022Z,20.30
2022-08-23T20:21:38.365Z,20.20
2022-08-23T20:24:05.949Z,20.10
2022-08-23T20:26:35.202Z,20.10
2022-08-23T20:29:03.527Z,20.00
2022-08-23T20:31:35.228Z,20.00
2022-08-23T20:34:03.686Z,19.90
2022-08-23T20:36:31.883Z,19.90
2022-08-23T20:39:00.491Z,19.90
2022-08-23T20:41:29.137Z,19.90
2022-08-23T20:43:58.098Z,19.80
2022-08-23T20:46:26.204Z,19.80
2022-08-23T20:48:57.547Z,19.80
2022-08-23T20:51:25.697Z,19.70
2022-08-23T20:53:54.077Z,19.70
2022-08-23T20:56:25.135Z,19.70
2022-08-23T20:58:54.223Z,19.70
2022-08-23T21:01:22.439Z,19.60
2022-08-23T21:03:50.582Z,19.60
2022-08-23T21:06:21.904Z,19.50
2022-08-23T21:08:50.232Z,19.50
2022-08-23T21:11:22.039Z,19.40
2022-08-23T21:13:50.158Z,19.40
2022-08-23T21:16:18.312Z,19.40
2022-08-23T21:18:46.631Z,19.40
2022-08-23T21:21:17.682Z,19.40
2022-08-23T21:23:49.392Z,19.40
2022-08-23T21:26:17.545Z,19.30
2022-08-23T21:28:45.641Z,19.30
2022-08-23T21:31:15.022Z,19.20
2022-08-23T21:33:43.186Z,19.10
2022-08-23T21:36:11.226Z,19.10
2022-08-23T21:38:39.368Z,19.10
2022-08-23T21:41:10.324Z,19.00
2022-08-23T21:43:40.054Z,19.00
2022-08-23T21:46:08.237Z,19.00
2022-08-23T21:48:36.391Z,19.00
2022-08-23T21:51:04.552Z,19.00
2022-08-23T21:53:32.634Z,19.00
2022-08-23T21:56:00.685Z,18.80
2022-08-23T21:58:30.136Z,18.80
2022-08-23T22:00:58.190Z,18.70
2022-08-23T22:03:26.274Z,18.60
2022-08-23T22:05:54.655Z,18.60
2022-08-23T22:08:22.738Z,18.60
2022-08-23T22:10:57.772Z,18.60
2022-08-23T22:13:27.017Z,18.60
2022-08-23T22:15:56.558Z,18.50
2022-08-23T22:18:24.672Z,18.50
2022-08-23T22:20:53.078Z,18.40
2022-08-23T22:23:21.199Z,18.40
2022-08-23T22:25:49.262Z,18.40
2022-08-23T22:28:17.343Z,18.40
2022-08-23T22:30:45.470Z,18.30
2022-08-23T22:33:14.919Z,18.30
2022-08-23T22:35:48.825Z,18.30
2022-08-23T22:38:17.503Z,18.40
2022-08-23T22:40:49.036Z,18.30
2022-08-23T22:43:17.389Z,18.30
2022-08-23T22:45:52.522Z,18.30
2022-08-23T22:48:22.103Z,18.20
2022-08-23T22:50:50.280Z,18.20
2022-08-23T22:53:19.840Z,18.20
2022-08-23T22:55:51.286Z,18.20
2022-08-23T22:58:19.374Z,18.20
2022-08-23T23:00:47.454Z,18.20
2022-08-23T23:03:15.532Z,18.10
2022-08-23T23:05:45.811Z,18.20
2022-08-23T23:08:28.891Z,18.10
2022-08-23T23:10:58.247Z,18.10
2022-08-23T23:13:27.216Z,18.10
2022-08-23T23:15:55.440Z,18.10
2022-08-23T23:18:23.622Z,18.10
2022-08-23T23:20:52.497Z,18.00
2022-08-23T23:23:22.757Z,18.00
2022-08-23T23:25:51.082Z,18.00
2022-08-23T23:28:19.540Z,17.90
2022-08-23T23:30:49.278Z,17.90
2022-08-23T23:33:17.468Z,18.00
2022-08-23T23:35:45.569Z,17.90
2022-08-23T23:38:15.131Z,17.90
2022-08-23T23:40:43.759Z,17.90
2022-08-23T23:43:13.088Z,17.90
2022-08-23T23:45:41.645Z,17.90
2022-08-23T23:48:10.731Z,17.90
2022-08-23T23:50:45.458Z,17.90
2022-08-23T23:53:16.609Z,17.90
2022-08-23T23:55:44.698Z,17.90
2022-08-23T23:58:13.098Z,17.90
